sensor_id;sensor_type;location;lat;lon;timestamp;pressure;altitude;pressure_sealevel;temperature;humidity
32083;BME280;18597;48.328;7.932;2023-05-16T00:00:08;99258.34;;;11.26;100.00
32083;BME280;18597;48.328;7.932;2023-05-16T00:02:35;99254.06;;;11.33;100.00
32083;BME280;18597;48.328;7.932;2023-05-16T00:05:04;99255.75;;;11.44;100.00
32083;BME280;18597;48.328;7.932;2023-05-16T00:07:33;99255.59;;;11.46;100.00
32083;BME280;18597;48.328;7.932;2023-05-16T00:09:59;99255.06;;;11.42;100.00
32083;BME280;18597;48.328;7.932;2023-05-16T00:12:25;99250.34;;;11.54;100.00
32083;BME280;18597;48.328;7.932;2023-05-16T00:14:52;99246.47;;;11.38;100.00
32083;BME280;18597;48.328;7.932;2023-05-16T00:17:18;99252.91;;;11.46;100.00
32083;BME280;18597;48.328;7.932;2023-05-16T00:20:19;99247.56;;;11.46;100.00
32083;BME280;18597;48.328;7.932;2023-05-16T00:22:48;99244.72;;;11.47;100.00
32083;BME280;18597;48.328;7.932;2023-05-16T00:25:13;99243.25;;;11.35;100.00
32083;BME280;18597;48.328;7.932;2023-05-16T00:27:39;99248.66;;;11.53;100.00
32083;BME280;18597;48.328;7.932;2023-05-16T00:30:07;99242.63;;;11.51;100.00
32083;BME280;18597;48.328;7.932;2023-05-16T00:32:33;99242.09;;;11.37;100.00
32083;BME280;18597;48.328;7.932;2023-05-16T00:34:58;99233.59;;;11.52;100.00
32083;BME280;18597;48.328;7.932;2023-05-16T00:37:24;99231.97;;;11.41;100.00
32083;BME280;18597;48.328;7.932;2023-05-16T00:39:50;99239.84;;;11.43;100.00
32083;BME280;18597;48.328;7.932;2023-05-16T00:42:18;99239.53;;;11.46;100.00
32083;BME280;18597;48.328;7.932;2023-05-16T00:44:46;99237.75;;;11.36;100.00
32083;BME280;18597;48.328;7.932;2023-05-16T00:47:12;99232.72;;;11.61;100.00
32083;BME280;18597;48.328;7.932;2023-05-16T00:49:39;99226.84;;;11.57;100.00
32083;BME280;18597;48.328;7.932;2023-05-16T00:52:05;99230.53;;;11.47;100.00
32083;BME280;18597;48.328;7.932;2023-05-16T00:54:31;99231.34;;;11.47;100.00
32083;BME280;18597;48.328;7.932;2023-05-16T00:56:57;99230.09;;;11.51;100.00
32083;BME280;18597;48.328;7.932;2023-05-16T00:59:24;99225.63;;;11.42;100.00
32083;BME280;18597;48.328;7.932;2023-05-16T01:01:51;99227.25;;;11.53;100.00
32083;BME280;18597;48.328;7.932;2023-05-16T01:04:17;99227.00;;;11.46;100.00
32083;BME280;18597;48.328;7.932;2023-05-16T01:06:44;99237.84;;;11.45;100.00
32083;BME280;18597;48.328;7.932;2023-05-16T01:09:10;99236.59;;;11.49;100.00
32083;BME280;18597;48.328;7.932;2023-05-16T01:14:50;99241.94;;;11.49;100.00
32083;BME280;18597;48.328;7.932;2023-05-16T01:20:58;99232.19;;;11.48;100.00
32083;BME280;18597;48.328;7.932;2023-05-16T01:24:08;99235.88;;;11.47;100.00
32083;BME280;18597;48.328;7.932;2023-05-16T01:26:38;99241.75;;;11.60;100.00
32083;BME280;18597;48.328;7.932;2023-05-16T01:29:06;99240.94;;;11.50;100.00
32083;BME280;18597;48.328;7.932;2023-05-16T01:31:32;99240.34;;;11.56;100.00
32083;BME280;18597;48.328;7.932;2023-05-16T01:33:59;99237.16;;;11.43;100.00
32083;BME280;18597;48.328;7.932;2023-05-16T01:37:03;99238.16;;;11.42;100.00
32083;BME280;18597;48.328;7.932;2023-05-16T01:39:41;99231.81;;;11.43;100.00
32083;BME280;18597;48.328;7.932;2023-05-16T01:42:14;99226.84;;;11.48;100.00
32083;BME280;18597;48.328;7.932;2023-05-16T01:45:25;99229.16;;;11.43;100.00
32083;BME280;18597;48.328;7.932;2023-05-16T01:48:04;99232.66;;;11.33;100.00
32083;BME280;18597;48.328;7.932;2023-05-16T01:50:35;99221.28;;;11.41;100.00
32083;BME280;18597;48.328;7.932;2023-05-16T01:53:08;99230.41;;;11.38;100.00
32083;BME280;18597;48.328;7.932;2023-05-16T01:55:45;99225.16;;;11.56;100.00
32083;BME280;18597;48.328;7.932;2023-05-16T01:58:14;99233.59;;;11.52;100.00
32083;BME280;18597;48.328;7.932;2023-05-16T02:00:40;99234.88;;;11.48;100.00
32083;BME280;18597;48.328;7.932;2023-05-16T02:03:07;99229.97;;;11.43;100.00
32083;BME280;18597;48.328;7.932;2023-05-16T02:05:33;99232.31;;;11.56;100.00
32083;BME280;18597;48.328;7.932;2023-05-16T02:07:59;99233.59;;;11.52;100.00
32083;BME280;18597;48.328;7.932;2023-05-16T02:10:26;99237.69;;;11.46;100.00
32083;BME280;18597;48.328;7.932;2023-05-16T02:12:52;99237.38;;;11.59;100.00
32083;BME280;18597;48.328;7.932;2023-05-16T02:15:19;99241.09;;;11.38;100.00
32083;BME280;18597;48.328;7.932;2023-05-16T02:17:44;99242.09;;;11.37;100.00
32083;BME280;18597;48.328;7.932;2023-05-16T02:20:12;99239.84;;;11.43;100.00
32083;BME280;18597;48.328;7.932;2023-05-16T02:22:38;99238.16;;;11.42;100.00
32083;BME280;18597;48.328;7.932;2023-05-16T02:25:05;99236.03;;;11.45;100.00
32083;BME280;18597;48.328;7.932;2023-05-16T02:27:31;99243.16;;;11.54;100.00
32083;BME280;18597;48.328;7.932;2023-05-16T02:29:57;99237.44;;;11.49;100.00
32083;BME280;18597;48.328;7.932;2023-05-16T02:32:23;99240.53;;;11.45;100.00
32083;BME280;18597;48.328;7.932;2023-05-16T02:34:49;99241.22;;;11.47;100.00
32083;BME280;18597;48.328;7.932;2023-05-16T02:37:15;99235.13;;;11.54;100.00
32083;BME280;18597;48.328;7.932;2023-05-16T02:39:41;99240.63;;;11.53;100.00
32083;BME280;18597;48.328;7.932;2023-05-16T02:42:06;99236.44;;;11.50;100.00
32083;BME280;18597;48.328;7.932;2023-05-16T02:44:32;99236.59;;;11.49;100.00
32083;BME280;18597;48.328;7.932;2023-05-16T02:46:58;99236.84;;;11.46;100.00
32083;BME280;18597;48.328;7.932;2023-05-16T02:49:24;99235.69;;;11.58;100.00
32083;BME280;18597;48.328;7.932;2023-05-16T02:51:50;99234.59;;;11.51;100.00
32083;BME280;18597;48.328;7.932;2023-05-16T02:54:17;99229.50;;;11.57;100.00
32083;BME280;18597;48.328;7.932;2023-05-16T02:56:44;99233.31;;;11.55;100.00
32083;BME280;18597;48.328;7.932;2023-05-16T02:59:10;99233.03;;;11.58;100.00
32083;BME280;18597;48.328;7.932;2023-05-16T03:01:37;99235.25;;;11.62;100.00
32083;BME280;18597;48.328;7.932;2023-05-16T03:04:02;99230.56;;;11.74;100.00
32083;BME280;18597;48.328;7.932;2023-05-16T03:06:28;99234.22;;;11.73;100.00
32083;BME280;18597;48.328;7.932;2023-05-16T03:08:56;99242.00;;;11.66;100.00
32083;BME280;18597;48.328;7.932;2023-05-16T03:11:21;99240.84;;;11.42;100.00
32083;BME280;18597;48.328;7.932;2023-05-16T03:13:49;99238.88;;;11.34;100.00
32083;BME280;18597;48.328;7.932;2023-05-16T03:16:15;99234.38;;;11.34;100.00
32083;BME280;18597;48.328;7.932;2023-05-16T03:18:42;99236.84;;;11.46;100.00
32083;BME280;18597;48.328;7.932;2023-05-16T03:21:08;99237.00;;;11.44;100.00
32083;BME280;18597;48.328;7.932;2023-05-16T03:23:34;99242.06;;;11.47;100.00
32083;BME280;18597;48.328;7.932;2023-05-16T03:26:00;99234.44;;;11.52;100.00
32083;BME280;18597;48.328;7.932;2023-05-16T03:28:26;99238.97;;;11.52;100.00
32083;BME280;18597;48.328;7.932;2023-05-16T03:30:52;99237.38;;;11.59;100.00
32083;BME280;18597;48.328;7.932;2023-05-16T03:33:18;99244.09;;;11.63;100.00
32083;BME280;18597;48.328;7.932;2023-05-16T03:35:44;99245.22;;;11.70;100.00
32083;BME280;18597;48.328;7.932;2023-05-16T03:38:11;99246.03;;;11.71;100.00
32083;BME280;18597;48.328;7.932;2023-05-16T03:40:37;99249.34;;;11.64;100.00
32083;BME280;18597;48.328;7.932;2023-05-16T03:43:02;99261.56;;;11.67;100.00
32083;BME280;18597;48.328;7.932;2023-05-16T03:45:29;99250.28;;;11.63;100.00
32083;BME280;18597;48.328;7.932;2023-05-16T03:47:56;99253.13;;;11.72;100.00
32083;BME280;18597;48.328;7.932;2023-05-16T03:50:22;99252.97;;;11.73;100.00
32083;BME280;18597;48.328;7.932;2023-05-16T03:52:47;99259.16;;;11.74;100.00
32083;BME280;18597;48.328;7.932;2023-05-16T03:55:13;99258.47;;;11.72;100.00
32083;BME280;18597;48.328;7.932;2023-05-16T03:57:40;99262.50;;;11.76;100.00
32083;BME280;18597;48.328;7.932;2023-05-16T04:00:08;99255.16;;;11.78;100.00
32083;BME280;18597;48.328;7.932;2023-05-16T04:02:35;99268.16;;;11.73;100.00
32083;BME280;18597;48.328;7.932;2023-05-16T04:05:01;99267.22;;;11.64;100.00
32083;BME280;18597;48.328;7.932;2023-05-16T04:07:27;99267.22;;;11.64;100.00
32083;BME280;18597;48.328;7.932;2023-05-16T04:09:54;99265.66;;;11.61;100.00
32083;BME280;18597;48.328;7.932;2023-05-16T04:12:20;99270.75;;;11.64;100.00
32083;BME280;18597;48.328;7.932;2023-05-16T04:14:47;99271.00;;;11.61;100.00
32083;BME280;18597;48.328;7.932;2023-05-16T04:17:13;99273.25;;;11.66;100.00
32083;BME280;18597;48.328;7.932;2023-05-16T04:19:39;99275.78;;;11.67;100.00
32083;BME280;18597;48.328;7.932;2023-05-16T04:22:05;99277.94;;;11.64;100.00
32083;BME280;18597;48.328;7.932;2023-05-16T04:24:32;99269.44;;;11.68;100.00
32083;BME280;18597;48.328;7.932;2023-05-16T04:26:58;99274.25;;;11.65;100.00
32083;BME280;18597;48.328;7.932;2023-05-16T04:29:24;99274.25;;;11.65;100.00
32083;BME280;18597;48.328;7.932;2023-05-16T04:31:50;99279.59;;;11.65;100.00
32083;BME280;18597;48.328;7.932;2023-05-16T04:34:16;99278.16;;;11.71;100.00
32083;BME280;18597;48.328;7.932;2023-05-16T04:36:42;99283.66;;;11.69;100.00
32083;BME280;18597;48.328;7.932;2023-05-16T04:39:08;99282.81;;;11.68;100.00
32083;BME280;18597;48.328;7.932;2023-05-16T04:41:34;99273.41;;;11.64;100.00
32083;BME280;18597;48.328;7.932;2023-05-16T04:44:01;99284.25;;;11.63;100.00
32083;BME280;18597;48.328;7.932;2023-05-16T04:46:29;99279.03;;;11.61;100.00
32083;BME280;18597;48.328;7.932;2023-05-16T04:48:55;99279.88;;;11.62;100.00
32083;BME280;18597;48.328;7.932;2023-05-16T04:51:21;99281.56;;;11.63;100.00
32083;BME280;18597;48.328;7.932;2023-05-16T04:53:47;99286.28;;;11.79;100.00
32083;BME280;18597;48.328;7.932;2023-05-16T04:56:13;99283.91;;;11.76;100.00
32083;BME280;18597;48.328;7.932;2023-05-16T04:58:39;99289.59;;;11.73;100.00
32083;BME280;18597;48.328;7.932;2023-05-16T05:01:05;99288.59;;;11.74;100.00
32083;BME280;18597;48.328;7.932;2023-05-16T05:03:31;99284.69;;;11.58;100.00
32083;BME280;18597;48.328;7.932;2023-05-16T05:05:57;99286.91;;;11.63;100.00
32083;BME280;18597;48.328;7.932;2023-05-16T05:08:22;99283.41;;;11.62;100.00
32083;BME280;18597;48.328;7.932;2023-05-16T05:10:48;99283.13;;;11.56;100.00
32083;BME280;18597;48.328;7.932;2023-05-16T05:13:14;99291.31;;;11.54;100.00
32083;BME280;18597;48.328;7.932;2023-05-16T05:15:40;99289.22;;;11.48;100.00
32083;BME280;18597;48.328;7.932;2023-05-16T05:18:06;99294.88;;;11.45;100.00
32083;BME280;18597;48.328;7.932;2023-05-16T05:20:31;99294.31;;;11.42;100.00
32083;BME280;18597;48.328;7.932;2023-05-16T05:22:57;99290.09;;;11.39;100.00
32083;BME280;18597;48.328;7.932;2023-05-16T05:25:23;99294.91;;;11.35;100.00
32083;BME280;18597;48.328;7.932;2023-05-16T05:27:49;99288.28;;;11.30;100.00
32083;BME280;18597;48.328;7.932;2023-05-16T05:30:14;99293.09;;;11.26;100.00
32083;BME280;18597;48.328;7.932;2023-05-16T05:32:40;99300.13;;;11.27;100.00
32083;BME280;18597;48.328;7.932;2023-05-16T05:35:06;99300.97;;;11.28;100.00
32083;BME280;18597;48.328;7.932;2023-05-16T05:37:32;99301.81;;;11.28;100.00
32083;BME280;18597;48.328;7.932;2023-05-16T05:39:58;99302.66;;;11.29;100.00
32083;BME280;18597;48.328;7.932;2023-05-16T05:42:25;99301.97;;;11.27;100.00
32083;BME280;18597;48.328;7.932;2023-05-16T05:44:50;99304.47;;;11.28;100.00
32083;BME280;18597;48.328;7.932;2023-05-16T05:47:16;99303.50;;;11.29;100.00
32083;BME280;18597;48.328;7.932;2023-05-16T05:49:43;99307.84;;;11.30;100.00
32083;BME280;18597;48.328;7.932;2023-05-16T05:52:08;99317.97;;;11.36;100.00
32083;BME280;18597;48.328;7.932;2023-05-16T05:54:34;99313.88;;;11.32;100.00
32083;BME280;18597;48.328;7.932;2023-05-16T05:57:00;99310.78;;;11.37;100.00
32083;BME280;18597;48.328;7.932;2023-05-16T05:59:26;99316.28;;;11.35;100.00
32083;BME280;18597;48.328;7.932;2023-05-16T06:01:52;99316.84;;;11.39;100.00
32083;BME280;18597;48.328;7.932;2023-05-16T06:04:19;99319.66;;;11.37;100.00
32083;BME280;18597;48.328;7.932;2023-05-16T06:06:45;99321.91;;;11.42;100.00
32083;BME280;18597;48.328;7.932;2023-05-16T06:09:12;99316.56;;;11.42;100.00
32083;BME280;18597;48.328;7.932;2023-05-16T06:11:40;99324.03;;;11.38;100.00
32083;BME280;18597;48.328;7.932;2023-05-16T06:14:06;99325.81;;;11.48;100.00
32083;BME280;18597;48.328;7.932;2023-05-16T06:16:32;99329.22;;;11.50;100.00
32083;BME280;18597;48.328;7.932;2023-05-16T06:18:58;99332.44;;;11.53;100.00
32083;BME280;18597;48.328;7.932;2023-05-16T06:21:24;99337.63;;;11.55;100.00
32083;BME280;18597;48.328;7.932;2023-05-16T06:23:50;99335.41;;;11.50;100.00
32083;BME280;18597;48.328;7.932;2023-05-16T06:26:16;99335.69;;;11.47;100.00
32083;BME280;18597;48.328;7.932;2023-05-16T06:28:41;99340.19;;;11.47;100.00
32083;BME280;18597;48.328;7.932;2023-05-16T06:31:07;99337.78;;;11.53;100.00
32083;BME280;18597;48.328;7.932;2023-05-16T06:33:34;99338.06;;;11.60;100.00
32083;BME280;18597;48.328;7.932;2023-05-16T06:36:00;99336.22;;;11.60;100.00
32083;BME280;18597;48.328;7.932;2023-05-16T06:38:26;99342.59;;;11.50;100.00
32083;BME280;18597;48.328;7.932;2023-05-16T06:40:51;99341.19;;;11.46;100.00
32083;BME280;18597;48.328;7.932;2023-05-16T06:43:17;99336.69;;;11.46;100.00
32083;BME280;18597;48.328;7.932;2023-05-16T06:45:44;99340.03;;;11.48;100.00
32083;BME280;18597;48.328;7.932;2023-05-16T06:48:14;99349.06;;;11.57;100.00
32083;BME280;18597;48.328;7.932;2023-05-16T06:50:40;99344.66;;;11.56;100.00
32083;BME280;18597;48.328;7.932;2023-05-16T06:53:06;99340.44;;;11.63;100.00
32083;BME280;18597;48.328;7.932;2023-05-16T06:55:33;99351.59;;;11.58;100.00
32083;BME280;18597;48.328;7.932;2023-05-16T06:57:59;99346.63;;;11.63;100.00
32083;BME280;18597;48.328;7.932;2023-05-16T07:00:25;99350.13;;;11.74;100.00
32083;BME280;18597;48.328;7.932;2023-05-16T07:02:51;99351.66;;;11.76;100.00
32083;BME280;18597;48.328;7.932;2023-05-16T07:05:17;99356.47;;;11.73;100.00
32083;BME280;18597;48.328;7.932;2023-05-16T07:07:43;99359.03;;;11.64;100.00
32083;BME280;18597;48.328;7.932;2023-05-16T07:10:10;99355.84;;;11.42;100.00
32083;BME280;18597;48.328;7.932;2023-05-16T07:12:36;99354.72;;;11.44;100.00
32083;BME280;18597;48.328;7.932;2023-05-16T07:15:03;99362.31;;;11.49;100.00
32083;BME280;18597;48.328;7.932;2023-05-16T07:17:29;99360.38;;;11.22;100.00
32083;BME280;18597;48.328;7.932;2023-05-16T07:19:56;99355.16;;;11.30;100.00
32083;BME280;18597;48.328;7.932;2023-05-16T07:22:21;99379.50;;;11.36;100.00
32083;BME280;18597;48.328;7.932;2023-05-16T07:24:47;99373.72;;;11.41;100.00
32083;BME280;18597;48.328;7.932;2023-05-16T07:27:13;99375.25;;;11.53;100.00
32083;BME280;18597;48.328;7.932;2023-05-16T07:29:40;99368.91;;;11.64;100.00
32083;BME280;18597;48.328;7.932;2023-05-16T07:32:06;99383.41;;;11.81;100.00
32083;BME280;18597;48.328;7.932;2023-05-16T07:34:32;99389.38;;;12.02;100.00
32083;BME280;18597;48.328;7.932;2023-05-16T07:36:58;99387.81;;;12.09;100.00
32083;BME280;18597;48.328;7.932;2023-05-16T07:39:23;99387.81;;;12.09;100.00
32083;BME280;18597;48.328;7.932;2023-05-16T07:41:49;99396.53;;;12.11;100.00
32083;BME280;18597;48.328;7.932;2023-05-16T07:44:15;99399.69;;;12.34;100.00
32083;BME280;18597;48.328;7.932;2023-05-16T07:46:41;99400.53;;;12.35;100.00
32083;BME280;18597;48.328;7.932;2023-05-16T07:49:09;99399.31;;;12.19;100.00
32083;BME280;18597;48.328;7.932;2023-05-16T07:51:35;99409.41;;;11.98;100.00
32083;BME280;18597;48.328;7.932;2023-05-16T07:54:01;99406.28;;;12.03;100.00
32083;BME280;18597;48.328;7.932;2023-05-16T07:56:27;99407.03;;;11.95;100.00
32083;BME280;18597;48.328;7.932;2023-05-16T07:58:53;99400.34;;;12.09;100.00
32083;BME280;18597;48.328;7.932;2023-05-16T08:01:19;99401.63;;;12.05;100.00
32083;BME280;18597;48.328;7.932;2023-05-16T08:03:45;99394.75;;;12.02;100.00
32083;BME280;18597;48.328;7.932;2023-05-16T08:06:11;99409.63;;;12.14;100.00
32083;BME280;18597;48.328;7.932;2023-05-16T08:08:37;99407.25;;;12.11;100.00
32083;BME280;18597;48.328;7.932;2023-05-16T08:11:03;99415.94;;;12.23;100.00
32083;BME280;18597;48.328;7.932;2023-05-16T08:13:30;99413.66;;;12.28;100.00
32083;BME280;18597;48.328;7.932;2023-05-16T08:15:56;99411.13;;;12.54;100.00
32083;BME280;18597;48.328;7.932;2023-05-16T08:18:22;99420.78;;;12.47;100.00
32083;BME280;18597;48.328;7.932;2023-05-16T08:20:47;99410.44;;;12.80;100.00
32083;BME280;18597;48.328;7.932;2023-05-16T08:23:13;99420.81;;;12.92;100.00
32083;BME280;18597;48.328;7.932;2023-05-16T08:25:39;99423.41;;;13.02;100.00
32083;BME280;18597;48.328;7.932;2023-05-16T08:28:05;99424.56;;;13.17;100.00
32083;BME280;18597;48.328;7.932;2023-05-16T08:30:31;99422.00;;;13.25;100.00
32083;BME280;18597;48.328;7.932;2023-05-16T08:32:57;99426.06;;;13.47;100.00
32083;BME280;18597;48.328;7.932;2023-05-16T08:35:22;99421.81;;;13.45;100.00
32083;BME280;18597;48.328;7.932;2023-05-16T08:37:48;99420.50;;;13.67;100.00
32083;BME280;18597;48.328;7.932;2023-05-16T08:40:14;99429.19;;;13.43;100.00
32083;BME280;18597;48.328;7.932;2023-05-16T08:42:40;99427.97;;;13.37;100.00
32083;BME280;18597;48.328;7.932;2023-05-16T08:45:07;99435.09;;;13.64;100.00
32083;BME280;18597;48.328;7.932;2023-05-16T08:47:33;99424.88;;;13.68;100.00
32083;BME280;18597;48.328;7.932;2023-05-16T08:50:02;99433.41;;;13.63;100.00
32083;BME280;18597;48.328;7.932;2023-05-16T08:52:30;99437.09;;;13.88;100.00
32083;BME280;18597;48.328;7.932;2023-05-16T08:55:02;99434.44;;;14.14;100.00
32083;BME280;18597;48.328;7.932;2023-05-16T08:57:31;99433.63;;;14.48;100.00
32083;BME280;18597;48.328;7.932;2023-05-16T08:59:58;99431.25;;;14.44;100.00
32083;BME280;18597;48.328;7.932;2023-05-16T09:02:24;99421.47;;;14.69;100.00
32083;BME280;18597;48.328;7.932;2023-05-16T09:04:52;99427.44;;;14.97;100.00
32083;BME280;18597;48.328;7.932;2023-05-16T09:07:19;99421.63;;;15.51;100.00
32083;BME280;18597;48.328;7.932;2023-05-16T09:09:44;99430.09;;;15.72;100.00
32083;BME280;18597;48.328;7.932;2023-05-16T09:12:10;99423.34;;;15.68;100.00
32083;BME280;18597;48.328;7.932;2023-05-16T09:14:36;99429.88;;;15.49;100.00
32083;BME280;18597;48.328;7.932;2023-05-16T09:17:07;99432.38;;;15.26;100.00
32083;BME280;18597;48.328;7.932;2023-05-16T09:19:48;99436.81;;;14.85;100.00
32083;BME280;18597;48.328;7.932;2023-05-16T09:22:17;99436.72;;;14.61;100.00
32083;BME280;18597;48.328;7.932;2023-05-16T09:24:44;99440.38;;;14.52;100.00
32083;BME280;18597;48.328;7.932;2023-05-16T09:27:13;99449.34;;;14.68;100.00
32083;BME280;18597;48.328;7.932;2023-05-16T09:29:41;99435.19;;;14.58;100.00
32083;BME280;18597;48.328;7.932;2023-05-16T09:32:13;99435.09;;;14.76;100.00
32083;BME280;18597;48.328;7.932;2023-05-16T09:34:48;99438.34;;;14.96;100.00
32083;BME280;18597;48.328;7.932;2023-05-16T09:37:17;99436.69;;;15.11;100.00
32083;BME280;18597;48.328;7.932;2023-05-16T09:39:47;99444.81;;;15.19;100.00
32083;BME280;18597;48.328;7.932;2023-05-16T09:42:14;99453.84;;;15.10;100.00
32083;BME280;18597;48.328;7.932;2023-05-16T09:44:45;99450.97;;;15.04;100.00
32083;BME280;18597;48.328;7.932;2023-05-16T09:47:14;99455.34;;;14.96;100.00
32083;BME280;18597;48.328;7.932;2023-05-16T09:49:43;99452.75;;;14.79;100.00
32083;BME280;18597;48.328;7.932;2023-05-16T09:52:09;99455.97;;;14.82;100.00
32083;BME280;18597;48.328;7.932;2023-05-16T09:54:35;99456.09;;;14.81;100.00
32083;BME280;18597;48.328;7.932;2023-05-16T09:57:01;99454.16;;;14.91;100.00
32083;BME280;18597;48.328;7.932;2023-05-16T09:59:28;99455.97;;;14.82;100.00
32083;BME280;18597;48.328;7.932;2023-05-16T10:01:57;99456.28;;;14.45;100.00
32083;BME280;18597;48.328;7.932;2023-05-16T10:04:25;99454.66;;;14.26;100.00
32083;BME280;18597;48.328;7.932;2023-05-16T10:06:51;99458.34;;;13.99;100.00
32083;BME280;18597;48.328;7.932;2023-05-16T10:09:20;99462.38;;;14.03;100.00
32083;BME280;18597;48.328;7.932;2023-05-16T10:11:47;99463.19;;;14.22;100.00
32083;BME280;18597;48.328;7.932;2023-05-16T10:14:17;99461.31;;;14.14;100.00
32083;BME280;18597;48.328;7.932;2023-05-16T10:16:47;99461.81;;;13.92;100.00
32083;BME280;18597;48.328;7.932;2023-05-16T10:19:16;99465.91;;;13.78;100.00
32083;BME280;18597;48.328;7.932;2023-05-16T10:21:50;99470.41;;;13.95;100.00
32083;BME280;18597;48.328;7.932;2023-05-16T10:24:25;99478.22;;;14.06;100.00
32083;BME280;18597;48.328;7.932;2023-05-16T10:26:53;99470.44;;;14.03;100.00
32083;BME280;18597;48.328;7.932;2023-05-16T10:29:19;99476.94;;;13.93;100.00
32083;BME280;18597;48.328;7.932;2023-05-16T10:31:47;99486.13;;;13.90;100.00
32083;BME280;18597;48.328;7.932;2023-05-16T10:34:13;99476.75;;;13.68;100.00
32083;BME280;18597;48.328;7.932;2023-05-16T10:36:40;99484.78;;;13.50;100.00
32083;BME280;18597;48.328;7.932;2023-05-16T10:39:06;99486.09;;;13.46;100.00
32083;BME280;18597;48.328;7.932;2023-05-16T10:41:33;99487.78;;;13.47;100.00
32083;BME280;18597;48.328;7.932;2023-05-16T10:43:59;99485.56;;;13.60;100.00
32083;BME280;18597;48.328;7.932;2023-05-16T10:46:26;99493.16;;;13.83;100.00
32083;BME280;18597;48.328;7.932;2023-05-16T10:48:54;99480.69;;;14.00;100.00
32083;BME280;18597;48.328;7.932;2023-05-16T10:54:08;99480.69;;;14.26;100.00
32083;BME280;18597;48.328;7.932;2023-05-16T10:56:35;99488.44;;;14.29;100.00
32083;BME280;18597;48.328;7.932;2023-05-16T10:59:01;99488.22;;;14.22;100.00
32083;BME280;18597;48.328;7.932;2023-05-16T11:01:33;99489.06;;;14.23;100.00
32083;BME280;18597;48.328;7.932;2023-05-16T11:04:04;99483.94;;;14.11;100.00
32083;BME280;18597;48.328;7.932;2023-05-16T11:11:58;99489.53;;;14.18;100.00
32083;BME280;18597;48.328;7.932;2023-05-16T11:14:36;99496.06;;;14.15;100.00
32083;BME280;18597;48.328;7.932;2023-05-16T11:17:11;99496.84;;;14.08;100.00
32083;BME280;18597;48.328;7.932;2023-05-16T11:25:04;99508.66;;;13.97;100.00
32083;BME280;18597;48.328;7.932;2023-05-16T11:27:34;99495.13;;;13.99;100.00
32083;BME280;18597;48.328;7.932;2023-05-16T11:30:13;99505.59;;;14.10;100.00
32083;BME280;18597;48.328;7.932;2023-05-16T11:32:43;99503.25;;;13.89;100.00
32083;BME280;18597;48.328;7.932;2023-05-16T11:35:13;99514.00;;;13.71;100.00
32083;BME280;18597;48.328;7.932;2023-05-16T11:37:39;99508.66;;;13.53;100.00
32083;BME280;18597;48.328;7.932;2023-05-16T11:40:07;99511.16;;;13.37;100.00
32083;BME280;18597;48.328;7.932;2023-05-16T11:42:38;99516.50;;;13.37;100.00
32083;BME280;18597;48.328;7.932;2023-05-16T11:45:10;99512.59;;;13.04;100.00
32083;BME280;18597;48.328;7.932;2023-05-16T11:47:39;99515.47;;;13.30;100.00
32083;BME280;18597;48.328;7.932;2023-05-16T11:50:10;99515.69;;;13.54;100.00
32083;BME280;18597;48.328;7.932;2023-05-16T11:52:36;99522.13;;;13.79;100.00
32083;BME280;18597;48.328;7.932;2023-05-16T11:55:05;99524.28;;;13.76;100.00
32083;BME280;18597;48.328;7.932;2023-05-16T11:57:32;99517.50;;;13.89;100.00
32083;BME280;18597;48.328;7.932;2023-05-16T12:00:14;99526.34;;;14.26;100.00
32083;BME280;18597;48.328;7.932;2023-05-16T12:02:43;99531.16;;;14.40;99.42
32083;BME280;18597;48.328;7.932;2023-05-16T12:05:09;99537.22;;;14.42;99.93
32083;BME280;18597;48.328;7.932;2023-05-16T12:07:36;99528.72;;;14.81;99.98
32083;BME280;18597;48.328;7.932;2023-05-16T12:10:17;99537.16;;;15.28;95.32
32083;BME280;18597;48.328;7.932;2023-05-16T12:12:46;99545.41;;;15.26;94.69
32083;BME280;18597;48.328;7.932;2023-05-16T12:15:12;99540.50;;;14.80;92.42
32083;BME280;18597;48.328;7.932;2023-05-16T12:17:40;99548.59;;;14.54;96.56
32083;BME280;18597;48.328;7.932;2023-05-16T12:20:09;99542.53;;;14.34;99.57
32083;BME280;18597;48.328;7.932;2023-05-16T12:22:41;99553.13;;;14.35;100.00
32083;BME280;18597;48.328;7.932;2023-05-16T12:25:29;99555.78;;;14.09;100.00
32083;BME280;18597;48.328;7.932;2023-05-16T12:28:00;99549.59;;;13.91;100.00
32083;BME280;18597;48.328;7.932;2023-05-16T12:30:28;99544.06;;;13.57;100.00
32083;BME280;18597;48.328;7.932;2023-05-16T12:32:57;99558.56;;;13.46;100.00
32083;BME280;18597;48.328;7.932;2023-05-16T12:35:25;99552.84;;;13.31;100.00
32083;BME280;18597;48.328;7.932;2023-05-16T12:37:52;99558.25;;;13.22;100.00
32083;BME280;18597;48.328;7.932;2023-05-16T12:40:17;99557.59;;;13.10;100.00
32083;BME280;18597;48.328;7.932;2023-05-16T12:42:49;99568.03;;;13.23;100.00
32083;BME280;18597;48.328;7.932;2023-05-16T12:45:16;99565.88;;;13.26;100.00
32083;BME280;18597;48.328;7.932;2023-05-16T12:47:44;99563.34;;;13.25;100.00
32083;BME280;18597;48.328;7.932;2023-05-16T12:50:12;99569.75;;;13.04;100.00
32083;BME280;18597;48.328;7.932;2023-05-16T12:52:50;99565.44;;;12.57;100.00
32083;BME280;18597;48.328;7.932;2023-05-16T12:55:18;99585.34;;;12.44;100.00
32083;BME280;18597;48.328;7.932;2023-05-16T12:57:45;99576.50;;;12.34;100.00
32083;BME280;18597;48.328;7.932;2023-05-16T13:00:14;99574.38;;;12.28;100.00
32083;BME280;18597;48.328;7.932;2023-05-16T13:02:40;99582.41;;;12.28;100.00
32083;BME280;18597;48.328;7.932;2023-05-16T13:05:07;99584.53;;;12.05;100.00
32083;BME280;18597;48.328;7.932;2023-05-16T13:07:33;99589.34;;;12.02;100.00
32083;BME280;18597;48.328;7.932;2023-05-16T13:09:59;99583.53;;;12.16;100.00
32083;BME280;18597;48.328;7.932;2023-05-16T13:12:25;99584.09;;;12.29;100.00